Time;durP1;ratioP1;P1;durP2;ratioP2;P2;SDS_P1;SDS_P2;PMS_P1;PMS_P2;Temp;Humidity;BMP_temperature;BMP_pressure;BME280_temperature;BME280_humidity;BME280_pressure;Samples;Min_cycle;Max_cycle;Signal;HPM_P1;HPM_P2
2023/11/08 00:00:22;;;;;;;10.53;6.60;;;;;;;8.33;70.73;100002.28;5089837;28;20199;-72
2023/11/08 00:02:50;;;;;;;13.87;6.87;;;;;;;8.30;71.09;99998.00;5090013;28;20200;-71
2023/11/08 00:05:18;;;;;;;11.33;6.87;;;;;;;8.28;70.64;99999.72;5091024;28;20201;-70
2023/11/08 00:07:46;;;;;;;12.03;6.93;;;;;;;8.23;71.06;99992.03;5088804;28;20260;-71
2023/11/08 00:10:14;;;;;;;9.00;7.03;;;;;;;8.26;70.58;99995.47;5089754;28;20823;-72
2023/11/08 00:12:43;;;;;;;10.43;6.37;;;;;;;8.18;70.99;99998.91;5082213;28;20200;-72
2023/11/08 00:15:11;;;;;;;13.33;7.50;;;;;;;8.20;70.87;100002.28;5092865;28;20276;-72
2023/11/08 00:17:41;;;;;;;13.53;6.93;;;;;;;8.20;71.34;100001.44;5092152;28;20240;-73
2023/11/08 00:20:11;;;;;;;11.67;7.43;;;;;;;8.16;71.47;100003.16;5093309;28;20208;-71
2023/11/08 00:22:39;;;;;;;9.33;6.93;;;;;;;8.13;71.35;100000.59;5092443;28;20651;-72
2023/11/08 00:25:08;;;;;;;12.20;7.23;;;;;;;8.08;71.17;99999.78;5092356;28;20219;-70
2023/11/08 00:27:36;;;;;;;14.30;7.13;;;;;;;8.05;71.23;99999.78;5093505;28;20205;-70
2023/11/08 00:30:04;;;;;;;10.17;6.20;;;;;;;8.04;72.06;100000.63;5094216;28;20212;-63
2023/11/08 00:32:32;;;;;;;11.57;7.00;;;;;;;8.00;72.37;99998.94;5093226;28;20613;-70
2023/11/08 00:35:02;;;;;;;13.67;7.27;;;;;;;7.98;71.75;99988.66;5090586;28;20200;-66
2023/11/08 00:37:30;;;;;;;11.33;6.60;;;;;;;7.99;71.58;99990.38;5093354;28;20323;-62
2023/11/08 00:39:58;;;;;;;11.53;7.03;;;;;;;7.97;72.12;99984.41;5092280;28;20193;-62
2023/11/08 00:42:26;;;;;;;10.67;6.93;;;;;;;7.99;71.09;99989.53;5092603;28;20212;-64
2023/11/08 00:44:54;;;;;;;10.97;6.80;;;;;;;7.97;71.26;99979.25;5093901;28;20209;-63
2023/11/08 00:47:24;;;;;;;12.07;6.80;;;;;;;7.99;71.33;99981.84;5090878;28;20700;-62
2023/11/08 00:49:52;;;;;;;8.90;6.17;;;;;;;8.00;72.07;99978.41;5089190;28;20680;-64
2023/11/08 00:52:23;;;;;;;11.50;7.00;;;;;;;7.97;71.69;99971.56;5092926;28;20216;-64
2023/11/08 00:54:51;;;;;;;8.27;6.10;;;;;;;8.07;72.14;99974.97;5091046;28;20209;-62
2023/11/08 00:57:19;;;;;;;12.50;7.30;;;;;;;8.08;71.83;99965.56;5095635;28;20686;-62
2023/11/08 00:59:46;;;;;;;14.83;7.07;;;;;;;8.12;71.77;99968.09;5098100;28;20196;-64
2023/11/08 01:02:14;;;;;;;9.27;6.33;;;;;;;8.13;70.83;99962.09;5094914;28;20250;-63
2023/11/08 01:04:45;;;;;;;14.03;7.73;;;;;;;8.19;71.46;99963.81;5100539;28;20255;-64
2023/11/08 01:07:13;;;;;;;17.60;7.03;;;;;;;8.17;71.43;99960.38;5097609;28;20205;-61
2023/11/08 01:09:43;;;;;;;8.87;5.73;;;;;;;8.15;71.06;99959.56;5101477;28;20659;-63
2023/11/08 01:12:11;;;;;;;14.50;7.00;;;;;;;8.15;71.62;99957.84;5093080;28;20209;-65
2023/11/08 01:14:39;;;;;;;13.23;6.70;;;;;;;8.18;71.07;99962.97;5092201;28;20200;-63
2023/11/08 01:17:07;;;;;;;11.37;6.70;;;;;;;8.19;71.73;99962.09;5092172;28;20245;-63
2023/11/08 01:19:36;;;;;;;10.33;7.40;;;;;;;8.19;70.94;99958.69;5094641;28;20204;-64
2023/11/08 01:22:05;;;;;;;10.13;6.43;;;;;;;8.15;71.30;99949.28;5092934;28;20197;-65
2023/11/08 01:24:34;;;;;;;14.53;7.30;;;;;;;8.20;71.01;99958.66;5088988;28;20193;-62
2023/11/08 01:27:04;;;;;;;12.37;7.13;;;;;;;8.23;71.16;99950.97;5092044;28;20204;-63
2023/11/08 01:29:32;;;;;;;9.67;6.77;;;;;;;8.28;71.23;99952.66;5099706;28;20671;-64
2023/11/08 01:32:00;;;;;;;12.77;6.73;;;;;;;8.30;70.69;99950.94;5088781;28;20662;-63
2023/11/08 01:34:30;;;;;;;11.40;6.90;;;;;;;8.32;71.26;99944.97;5093897;28;20201;-64
2023/11/08 01:37:01;;;;;;;11.87;6.80;;;;;;;8.31;70.63;99942.38;5093650;28;20667;-63
2023/11/08 01:39:29;;;;;;;11.50;6.33;;;;;;;8.32;70.86;99939.81;5102060;28;20193;-69
2023/11/08 01:41:57;;;;;;;10.67;6.93;;;;;;;8.34;70.80;99947.50;5102333;28;20196;-71
2023/11/08 01:44:26;;;;;;;9.40;6.10;;;;;;;8.30;70.12;99938.97;5092898;28;20204;-71
2023/11/08 01:46:55;;;;;;;13.77;6.67;;;;;;;8.29;71.14;99946.69;5096683;28;20679;-71
2023/11/08 01:49:26;;;;;;;12.63;6.40;;;;;;;8.20;70.56;99935.56;5088078;28;20235;-72
2023/11/08 01:51:55;;;;;;;12.17;6.80;;;;;;;8.19;71.54;99933.88;5091266;28;20208;-70
2023/11/08 01:54:26;;;;;;;10.13;7.27;;;;;;;8.18;71.66;99931.31;5095815;28;20209;-70
2023/11/08 01:56:56;;;;;;;11.23;7.03;;;;;;;8.16;71.65;99935.59;5093637;28;20208;-72
2023/11/08 01:59:27;;;;;;;12.37;6.90;;;;;;;8.13;70.66;99928.75;5092291;28;20216;-74
2023/11/08 02:01:57;;;;;;;13.27;7.03;;;;;;;8.14;71.88;99925.34;5093993;28;20590;-73
2023/11/08 02:04:28;;;;;;;11.37;6.53;;;;;;;8.16;71.28;99922.75;5090501;28;20694;-71
2023/11/08 02:06:57;;;;;;;13.67;7.00;;;;;;;8.18;71.51;99921.06;5088063;28;20200;-69
2023/11/08 02:09:26;;;;;;;11.03;6.87;;;;;;;8.16;71.46;99915.91;5091396;28;20269;-74
2023/11/08 02:11:55;;;;;;;12.80;6.40;;;;;;;8.23;71.69;99920.16;5082525;28;20264;-70
2023/11/08 02:14:25;;;;;;;12.17;6.73;;;;;;;8.25;70.82;99930.44;5088799;28;20234;-71
2023/11/08 02:16:54;;;;;;;13.50;7.20;;;;;;;8.27;71.59;99933.00;5099673;28;20204;-68
2023/11/08 02:19:22;;;;;;;13.23;7.10;;;;;;;8.25;71.43;99935.56;5093970;28;20728;-71
2023/11/08 02:21:51;;;;;;;13.47;6.17;;;;;;;8.19;70.89;99922.75;5090545;28;20216;-70
2023/11/08 02:24:22;;;;;;;10.53;6.53;;;;;;;8.23;70.93;99927.84;5090783;28;20201;-70
2023/11/08 02:26:51;;;;;;;10.93;6.37;;;;;;;8.26;71.57;99924.44;5092344;28;20759;-72
2023/11/08 02:29:19;;;;;;;9.33;5.87;;;;;;;8.28;70.99;99920.13;5089346;28;20603;-71
2023/11/08 02:31:50;;;;;;;10.63;6.80;;;;;;;8.30;70.50;99923.56;5092453;28;20227;-74
2023/11/08 02:34:19;;;;;;;11.10;6.23;;;;;;;8.23;71.00;99924.44;5082573;28;20300;-71
2023/11/08 02:36:48;;;;;;;13.43;7.20;;;;;;;8.20;70.94;99927.88;5087605;28;20219;-72
2023/11/08 02:39:18;;;;;;;12.33;6.30;;;;;;;8.13;72.15;99915.91;5082450;28;20204;-71
2023/11/08 02:41:50;;;;;;;12.93;6.73;;;;;;;8.10;72.24;99922.78;5089603;28;20284;-71
2023/11/08 02:44:18;;;;;;;11.57;6.30;;;;;;;8.07;71.56;99933.91;5090956;28;20250;-72
2023/11/08 02:46:47;;;;;;;9.37;6.23;;;;;;;8.04;71.64;99933.06;5089940;28;20238;-72
2023/11/08 02:49:15;;;;;;;11.33;6.87;;;;;;;8.01;71.79;99933.94;5090895;28;20208;-73
2023/11/08 02:51:43;;;;;;;12.53;7.23;;;;;;;8.00;72.59;99939.94;5064074;28;20610;-65
2023/11/08 02:54:11;;;;;;;13.20;7.27;;;;;;;8.00;71.96;99945.06;5089798;28;20212;-65
2023/11/08 02:56:40;;;;;;;11.97;7.03;;;;;;;7.94;72.03;99940.78;5091752;28;20652;-65
2023/11/08 02:59:10;;;;;;;11.80;6.47;;;;;;;7.90;72.79;99933.94;5089769;28;20510;-63
2023/11/08 03:01:39;;;;;;;11.80;7.30;;;;;;;7.86;72.91;99934.81;5084914;28;20576;-63
2023/11/08 03:04:08;;;;;;;11.13;7.07;;;;;;;7.86;72.80;99939.94;5088331;28;20200;-64
2023/11/08 03:06:36;;;;;;;9.90;7.17;;;;;;;7.86;73.24;99941.66;5090121;28;20394;-63
2023/11/08 03:09:06;;;;;;;11.30;6.60;;;;;;;7.87;73.62;99945.94;5088780;28;20216;-64
2023/11/08 03:11:38;;;;;;;13.23;6.63;;;;;;;7.88;73.17;99952.75;5088801;28;20600;-64
2023/11/08 03:14:07;;;;;;;13.40;7.10;;;;;;;7.81;72.91;99951.94;5089004;28;20193;-64
2023/11/08 03:16:37;;;;;;;12.13;7.17;;;;;;;7.83;74.22;99954.50;5090939;28;20252;-63
2023/11/08 03:19:08;;;;;;;11.47;7.30;;;;;;;7.87;73.91;99956.19;5089873;28;20783;-62
2023/11/08 03:21:37;;;;;;;11.13;7.03;;;;;;;7.90;74.08;99956.19;5096754;28;20205;-62
2023/11/08 03:24:08;;;;;;;14.10;7.70;;;;;;;7.92;73.14;99951.94;5083871;28;20635;-62
2023/11/08 03:26:36;;;;;;;13.87;7.27;;;;;;;7.96;73.39;99962.16;5088242;28;20327;-63
2023/11/08 03:29:04;;;;;;;11.17;6.97;;;;;;;7.99;73.41;99962.16;5090036;28;20204;-63
2023/11/08 03:31:33;;;;;;;14.90;7.23;;;;;;;8.02;73.70;99955.31;5095720;28;20602;-63
2023/11/08 03:34:03;;;;;;;11.33;7.17;;;;;;;7.99;73.36;99953.63;5089949;28;20212;-62
2023/11/08 03:36:32;;;;;;;14.97;7.97;;;;;;;8.00;73.78;99963.03;5090535;28;20208;-64
2023/11/08 03:39:00;;;;;;;12.17;7.53;;;;;;;7.95;73.87;99951.91;5091056;28;20200;-65
2023/11/08 03:41:28;;;;;;;11.07;7.57;;;;;;;8.04;73.07;99959.59;5093915;28;20196;-64
2023/11/08 03:43:56;;;;;;;13.37;7.37;;;;;;;8.03;73.28;99952.75;5086905;28;20223;-64
2023/11/08 03:46:24;;;;;;;11.90;8.10;;;;;;;8.03;72.77;99947.63;5089839;28;20230;-63
2023/11/08 03:48:54;;;;;;;11.97;7.20;;;;;;;8.03;73.57;99947.63;5088752;28;20591;-64
2023/11/08 03:51:23;;;;;;;11.03;7.50;;;;;;;8.02;73.29;99948.47;5089483;28;20204;-63
2023/11/08 03:53:52;;;;;;;13.43;7.50;;;;;;;8.01;73.70;99949.31;5092000;28;20641;-64
2023/11/08 03:56:20;;;;;;;14.10;7.93;;;;;;;8.00;73.11;99939.94;5091186;28;20253;-63
2023/11/08 03:58:48;;;;;;;10.10;7.27;;;;;;;8.05;73.24;99939.91;5088712;28;20204;-63
2023/11/08 04:01:16;;;;;;;14.10;8.30;;;;;;;8.06;73.85;99931.34;5090291;28;20205;-72
2023/11/08 04:03:45;;;;;;;13.50;7.90;;;;;;;8.09;72.78;99929.63;5086013;28;20219;-71
2023/11/08 04:06:13;;;;;;;11.27;7.13;;;;;;;8.10;73.05;99928.78;5092567;28;20219;-73
2023/11/08 04:08:42;;;;;;;12.00;7.07;;;;;;;8.14;72.83;99933.03;5088409;28;20621;-71
2023/11/08 04:11:10;;;;;;;11.30;7.30;;;;;;;8.14;73.10;99935.59;5093791;28;20245;-72
2023/11/08 04:13:38;;;;;;;13.50;7.67;;;;;;;8.18;73.22;99931.31;5088279;28;20308;-72
2023/11/08 04:16:07;;;;;;;10.83;7.30;;;;;;;8.14;72.89;99929.63;5088634;28;20205;-70
2023/11/08 04:18:35;;;;;;;11.20;7.13;;;;;;;8.12;72.83;99932.19;5100558;28;20231;-72
2023/11/08 04:21:05;;;;;;;10.63;7.30;;;;;;;8.12;73.00;99929.63;5091693;28;20236;-74
2023/11/08 04:23:33;;;;;;;11.80;7.27;;;;;;;8.12;73.44;99931.34;5088812;28;20257;-70
2023/11/08 04:26:02;;;;;;;15.00;7.77;;;;;;;8.13;72.82;99927.91;5089644;28;20299;-69
2023/11/08 04:28:31;;;;;;;11.83;7.73;;;;;;;8.12;73.85;99934.75;5081990;28;20204;-70
2023/11/08 04:31:00;;;;;;;12.47;7.00;;;;;;;8.10;72.91;99931.34;5083371;28;20200;-70
2023/11/08 04:33:28;;;;;;;13.13;7.13;;;;;;;8.07;73.70;99925.38;5087020;28;20212;-72
2023/11/08 04:35:56;;;;;;;11.00;6.93;;;;;;;8.06;73.32;99932.19;5088956;28;20250;-72
2023/11/08 04:38:24;;;;;;;9.67;6.80;;;;;;;8.11;73.59;99939.91;5090695;28;20205;-71
2023/11/08 04:40:53;;;;;;;11.57;7.37;;;;;;;8.08;73.52;99940.75;5090357;28;20696;-73
2023/11/08 04:43:22;;;;;;;16.47;8.13;;;;;;;8.08;73.77;99939.91;5089736;28;20284;-71
2023/11/08 04:45:52;;;;;;;13.17;7.53;;;;;;;8.08;73.65;99935.63;5086978;28;20685;-69
2023/11/08 04:48:21;;;;;;;13.70;7.63;;;;;;;8.05;73.60;99947.59;5089684;28;20319;-72
2023/11/08 04:50:49;;;;;;;14.10;7.73;;;;;;;8.03;73.59;99949.31;5086932;28;20207;-72
2023/11/08 04:53:17;;;;;;;12.97;7.80;;;;;;;8.01;73.70;99954.44;5089639;28;20211;-75
2023/11/08 04:55:45;;;;;;;13.90;8.13;;;;;;;7.96;73.69;99951.91;5089549;28;20204;-71
2023/11/08 04:58:13;;;;;;;17.10;8.77;;;;;;;7.91;74.22;99951.03;5073417;28;20758;-71
2023/11/08 05:00:43;;;;;;;12.47;8.43;;;;;;;7.93;73.55;99958.75;5090941;28;20379;-74
2023/11/08 05:03:11;;;;;;;14.60;7.50;;;;;;;7.91;73.94;99955.31;5082001;28;20227;-71
2023/11/08 05:05:42;;;;;;;11.03;6.90;;;;;;;7.91;74.21;99950.19;5093473;28;20197;-70
2023/11/08 05:08:10;;;;;;;14.17;7.73;;;;;;;7.90;74.53;99945.94;5093109;28;20235;-70
2023/11/08 05:10:39;;;;;;;11.10;7.13;;;;;;;7.94;75.02;99955.31;5092260;28;20618;-72
2023/11/08 05:13:07;;;;;;;11.70;7.40;;;;;;;7.98;74.62;99960.44;5094410;28;20258;-67
2023/11/08 05:15:34;;;;;;;11.93;7.70;;;;;;;8.02;74.50;99956.16;5085077;28;20204;-63
2023/11/08 05:18:04;;;;;;;13.67;7.90;;;;;;;8.04;74.63;99949.31;5093048;28;20332;-62
2023/11/08 05:20:32;;;;;;;13.07;7.80;;;;;;;8.07;73.63;99949.31;5096448;28;20205;-62
2023/11/08 05:23:00;;;;;;;11.23;7.20;;;;;;;8.09;74.09;99957.84;5089290;28;20212;-62
2023/11/08 05:25:28;;;;;;;12.03;8.03;;;;;;;8.09;74.19;99949.28;5090329;28;20200;-63
2023/11/08 05:27:58;;;;;;;13.50;8.13;;;;;;;8.12;74.18;99962.13;5093785;28;20197;-62
2023/11/08 05:30:26;;;;;;;12.00;7.30;;;;;;;8.10;74.03;99963.81;5095770;28;20207;-63
2023/11/08 05:32:54;;;;;;;14.90;7.73;;;;;;;8.08;74.10;99961.28;5085543;28;20622;-65
2023/11/08 05:35:25;;;;;;;15.50;7.27;;;;;;;8.06;74.27;99970.69;5093780;28;20233;-63
2023/11/08 05:37:52;;;;;;;13.40;7.67;;;;;;;8.02;nan;99968.97;5092168;28;20672;-63
2023/11/08 05:40:20;;;;;;;11.57;7.27;;;;;;;7.95;74.89;99965.59;5088169;28;20574;-70
2023/11/08 05:42:48;;;;;;;14.73;7.50;;;;;;;7.97;74.81;99968.16;5093322;28;20207;-63
2023/11/08 05:45:17;;;;;;;13.40;7.10;;;;;;;7.93;74.81;99969.03;5103177;28;20599;-62
2023/11/08 05:47:45;;;;;;;14.17;7.63;;;;;;;7.95;75.49;99970.72;5092657;28;20674;-63
2023/11/08 05:50:13;;;;;;;12.60;7.63;;;;;;;7.97;75.21;99969.00;5090280;28;20197;-63
2023/11/08 05:52:46;;;;;;;13.03;6.67;;;;;;;7.99;74.78;99976.72;5093666;28;20242;-64
2023/11/08 05:55:14;;;;;;;9.93;6.30;;;;;;;7.98;75.09;99982.69;5093216;28;20627;-65
2023/11/08 05:57:42;;;;;;;9.83;6.63;;;;;;;7.95;74.73;99974.97;5091660;28;20232;-65
2023/11/08 06:00:11;;;;;;;11.43;7.70;;;;;;;7.97;74.88;99978.41;5090409;28;20211;-64
2023/11/08 06:02:39;;;;;;;13.87;7.37;;;;;;;7.94;75.39;99983.53;5089499;28;20762;-63
2023/11/08 06:05:09;;;;;;;11.03;7.23;;;;;;;7.94;75.09;99986.09;5093768;28;20245;-62
2023/11/08 06:07:37;;;;;;;14.93;7.90;;;;;;;7.95;74.99;99986.13;5093296;28;20204;-63
2023/11/08 06:10:07;;;;;;;11.67;7.67;;;;;;;7.94;75.97;99988.69;5094374;28;20212;-64
2023/11/08 06:12:38;;;;;;;12.30;7.07;;;;;;;7.94;75.56;100004.06;5095874;28;20192;-63
2023/11/08 06:15:06;;;;;;;11.50;7.27;;;;;;;7.94;75.70;100001.50;5082017;28;20217;-62
2023/11/08 06:17:35;;;;;;;11.17;6.97;;;;;;;7.95;75.46;99998.97;5079214;28;20236;-63
2023/11/08 06:20:08;;;;;;;12.60;7.43;;;;;;;7.91;75.42;100004.06;5084753;28;20201;-66
2023/11/08 06:22:36;;;;;;;16.47;7.03;;;;;;;7.93;75.89;100002.38;5089326;28;20777;-63
2023/11/08 06:25:06;;;;;;;12.97;6.97;;;;;;;7.94;75.41;99998.94;5092844;28;20644;-65
2023/11/08 06:27:34;;;;;;;11.30;7.00;;;;;;;7.94;75.42;99998.94;5094639;28;20663;-65
2023/11/08 06:30:02;;;;;;;12.07;7.57;;;;;;;7.90;75.29;99999.81;5089863;28;20197;-67
2023/11/08 06:32:31;;;;;;;13.07;7.23;;;;;;;7.92;76.21;99996.38;5090619;28;20205;-68
2023/11/08 06:35:00;;;;;;;15.97;7.23;;;;;;;7.93;75.96;100004.94;5088470;28;20311;-65
2023/11/08 06:37:28;;;;;;;13.27;7.20;;;;;;;7.92;75.76;100006.66;5089691;28;20623;-63
2023/11/08 06:39:57;;;;;;;13.87;7.60;;;;;;;7.96;75.59;100004.94;5089065;28;20217;-65
2023/11/08 06:42:26;;;;;;;13.30;7.50;;;;;;;8.02;76.27;100017.72;5086150;28;20717;-64
2023/11/08 06:44:55;;;;;;;12.30;7.83;;;;;;;8.05;75.94;100017.72;5090564;28;20207;-63
2023/11/08 06:47:24;;;;;;;11.60;7.90;;;;;;;8.13;75.42;100010.88;5090416;28;20200;-64
2023/11/08 06:49:52;;;;;;;13.30;7.87;;;;;;;8.21;74.94;100015.97;5090624;28;20207;-62
2023/11/08 06:52:20;;;;;;;12.17;7.63;;;;;;;8.31;75.04;100009.97;5086149;28;20215;-64
2023/11/08 06:54:48;;;;;;;15.57;7.83;;;;;;;8.41;74.84;100005.72;5090432;28;20683;-65
2023/11/08 06:57:16;;;;;;;19.57;8.20;;;;;;;8.53;73.75;100003.09;5090646;28;20228;-64
2023/11/08 06:59:46;;;;;;;11.13;7.27;;;;;;;8.57;73.96;100009.91;5088397;28;20215;-63
2023/11/08 07:02:14;;;;;;;12.90;7.50;;;;;;;8.53;73.77;100009.94;5089037;28;20193;-65
2023/11/08 07:04:45;;;;;;;16.60;7.50;;;;;;;8.53;73.87;100010.78;5086017;28;20212;-64
2023/11/08 07:07:16;;;;;;;19.87;8.40;;;;;;;8.58;73.71;100008.19;5088773;28;20271;-65
2023/11/08 07:09:47;;;;;;;14.43;7.67;;;;;;;8.60;73.37;100007.34;5089498;28;20223;-65
2023/11/08 07:12:15;;;;;;;13.27;6.93;;;;;;;8.70;73.58;100006.44;5091996;28;20284;-62
2023/11/08 07:14:43;;;;;;;14.10;7.37;;;;;;;8.75;73.44;100013.28;5090402;28;20290;-65
2023/11/08 07:17:15;;;;;;;12.57;7.07;;;;;;;8.87;72.96;100019.22;5096340;28;20563;-62
2023/11/08 07:19:43;;;;;;;21.43;8.20;;;;;;;8.95;72.97;100016.59;5090125;28;20193;-65
2023/11/08 07:22:11;;;;;;;10.20;6.77;;;;;;;8.96;72.74;100020.88;5090776;28;20209;-64
2023/11/08 07:24:39;;;;;;;11.80;7.60;;;;;;;8.93;72.18;100015.75;5090604;28;20586;-64
2023/11/08 07:27:07;;;;;;;10.90;6.83;;;;;;;8.90;73.76;100013.19;5090862;28;20264;-62
2023/11/08 07:29:37;;;;;;;14.60;7.73;;;;;;;8.91;73.21;100025.16;5082556;28;20197;-63
2023/11/08 07:32:05;;;;;;;12.57;7.50;;;;;;;8.89;73.18;100024.34;5088008;28;20250;-70
2023/11/08 07:34:34;;;;;;;9.97;6.80;;;;;;;8.98;73.79;100023.41;5087845;28;20279;-66
2023/11/08 07:37:03;;;;;;;12.83;6.57;;;;;;;9.05;73.52;100032.81;5087757;28;20201;-66
2023/11/08 07:39:31;;;;;;;9.97;6.70;;;;;;;8.98;73.21;100019.13;5091621;28;20652;-66
2023/11/08 07:41:59;;;;;;;12.00;7.23;;;;;;;9.00;72.72;100025.13;5093981;28;20211;-66
2023/11/08 07:44:29;;;;;;;10.80;6.30;;;;;;;9.06;73.29;100021.69;5087380;28;20228;-63
2023/11/08 07:46:57;;;;;;;12.37;7.37;;;;;;;9.08;73.05;100023.38;5085729;28;20240;-65
2023/11/08 07:49:26;;;;;;;10.23;6.63;;;;;;;9.10;72.85;100029.38;5090644;28;20240;-65
2023/11/08 07:51:56;;;;;;;11.93;6.97;;;;;;;9.08;73.50;100031.06;5071304;28;20196;-64
2023/11/08 07:54:24;;;;;;;11.00;7.07;;;;;;;9.10;73.40;100029.38;5089348;28;20758;-64
2023/11/08 07:56:52;;;;;;;10.90;7.07;;;;;;;9.19;73.51;100025.88;5088762;28;20225;-64
2023/11/08 07:59:22;;;;;;;11.60;6.30;;;;;;;9.25;73.94;100030.13;5090592;28;20204;-63
2023/11/08 08:01:50;;;;;;;11.60;6.67;;;;;;;9.38;73.28;100031.75;5090171;28;20212;-64
2023/11/08 08:04:18;;;;;;;8.93;6.27;;;;;;;9.45;72.52;100023.13;5087026;28;20215;-62
2023/11/08 08:06:47;;;;;;;11.77;6.67;;;;;;;9.51;72.68;100030.81;5090849;28;20296;-64
2023/11/08 08:09:17;;;;;;;10.80;6.10;;;;;;;9.57;72.37;100027.31;5090755;28;20200;-63
2023/11/08 08:11:45;;;;;;;9.23;6.23;;;;;;;9.59;71.84;100029.03;5090782;28;20232;-63
2023/11/08 08:14:14;;;;;;;13.20;6.40;;;;;;;9.70;72.17;100033.22;5095292;28;20572;-64
2023/11/08 08:16:42;;;;;;;8.97;6.43;;;;;;;9.78;71.92;100027.16;5092227;28;20197;-63
2023/11/08 08:19:10;;;;;;;8.30;5.57;;;;;;;9.84;71.62;100026.25;5092564;28;20331;-66
2023/11/08 08:21:38;;;;;;;8.87;5.87;;;;;;;9.85;71.85;100026.22;5090768;28;20204;-65
2023/11/08 08:24:07;;;;;;;9.73;6.00;;;;;;;9.86;71.71;100025.34;5090606;28;20209;-64
2023/11/08 08:26:38;;;;;;;10.30;5.77;;;;;;;9.89;72.40;100025.31;5090820;28;20219;-69
2023/11/08 08:29:09;;;;;;;8.77;5.90;;;;;;;9.92;72.53;100027.03;5090077;28;20644;-63
2023/11/08 08:31:37;;;;;;;7.83;5.87;;;;;;;9.94;71.62;100027.84;5100378;28;20204;-64
2023/11/08 08:34:07;;;;;;;9.10;5.70;;;;;;;9.90;71.54;100026.19;5094598;28;20246;-63
2023/11/08 08:36:41;;;;;;;8.97;5.87;;;;;;;9.86;72.91;100022.78;5090684;28;20299;-65
2023/11/08 08:39:09;;;;;;;8.87;6.00;;;;;;;9.93;72.25;100026.16;5094241;28;20671;-64
2023/11/08 08:41:39;;;;;;;9.60;6.00;;;;;;;9.98;72.21;100032.13;5100362;28;20941;-66
2023/11/08 08:44:07;;;;;;;10.00;5.50;;;;;;;10.06;72.27;100020.03;5094514;28;20299;-72
2023/11/08 08:46:35;;;;;;;10.90;5.73;;;;;;;10.11;71.08;100023.41;5093611;28;20274;-72
2023/11/08 08:49:03;;;;;;;8.00;5.57;;;;;;;10.18;72.26;100020.78;5094227;28;20204;-69
2023/11/08 08:51:31;;;;;;;8.33;5.53;;;;;;;10.34;72.32;100024.91;5092016;28;20568;-68
2023/11/08 08:53:59;;;;;;;7.00;4.90;;;;;;;10.45;71.17;100029.94;5093979;28;20201;-68
2023/11/08 08:56:27;;;;;;;7.97;6.03;;;;;;;10.39;69.90;100025.75;5094179;28;20547;-65
2023/11/08 08:58:56;;;;;;;8.13;6.30;;;;;;;10.35;70.04;100017.19;5094505;28;20228;-65
2023/11/08 09:01:24;;;;;;;8.43;5.47;;;;;;;10.36;70.31;100021.47;5094953;28;20205;-66
2023/11/08 09:03:52;;;;;;;8.37;6.03;;;;;;;10.38;70.19;100029.16;5093646;28;20541;-66
2023/11/08 09:06:20;;;;;;;7.83;5.07;;;;;;;10.37;70.17;100030.03;5088829;28;20740;-66
2023/11/08 09:08:48;;;;;;;12.33;5.43;;;;;;;10.42;70.08;100032.56;5093655;28;20215;-66
2023/11/08 09:11:16;;;;;;;9.37;6.03;;;;;;;10.46;69.99;100027.38;5091679;28;20196;-68
2023/11/08 09:13:44;;;;;;;8.13;5.17;;;;;;;10.50;70.53;100031.63;5099491;28;20274;-65
2023/11/08 09:16:14;;;;;;;7.00;4.83;;;;;;;10.52;69.71;100027.28;5109834;28;20220;-66
2023/11/08 09:18:42;;;;;;;9.23;5.23;;;;;;;10.50;69.56;100026.47;5100352;28;20247;-66
2023/11/08 09:21:10;;;;;;;8.20;5.13;;;;;;;10.45;69.69;100033.38;5088604;28;20212;-69
2023/11/08 09:23:39;;;;;;;6.53;5.30;;;;;;;10.37;69.90;100036.03;5090425;28;20629;-66
2023/11/08 09:26:09;;;;;;;6.50;5.30;;;;;;;10.38;70.29;100031.72;5091420;28;20209;-71
2023/11/08 09:28:38;;;;;;;6.87;5.30;;;;;;;10.41;70.09;100036.84;5085239;28;20204;-65
2023/11/08 09:31:06;;;;;;;7.40;5.13;;;;;;;10.35;70.07;100031.78;5093161;28;20613;-70
2023/11/08 09:33:36;;;;;;;7.73;5.17;;;;;;;10.25;70.63;100025.00;5089750;28;20640;-67
2023/11/08 09:36:05;;;;;;;9.43;5.50;;;;;;;10.21;71.16;100025.91;5092573;28;20219;-70
2023/11/08 09:38:33;;;;;;;7.27;4.70;;;;;;;10.16;72.11;100024.22;5093053;28;20197;-70
2023/11/08 09:41:01;;;;;;;6.20;4.57;;;;;;;10.15;71.55;100030.22;5093254;28;20247;-72
2023/11/08 09:43:36;;;;;;;10.23;5.43;;;;;;;10.12;72.72;100032.81;5092929;28;20208;-74
2023/11/08 09:46:07;;;;;;;8.53;5.23;;;;;;;10.21;73.08;100029.31;5090663;28;20655;-76
2023/11/08 09:48:36;;;;;;;6.57;5.30;;;;;;;10.25;71.37;100035.28;5095335;28;20231;-71
2023/11/08 09:51:08;;;;;;;7.07;5.30;;;;;;;10.13;71.30;100044.00;5095667;28;20193;-69
2023/11/08 09:53:36;;;;;;;8.53;5.77;;;;;;;9.97;71.96;100038.13;5079119;28;20200;-65
2023/11/08 09:56:06;;;;;;;6.93;5.60;;;;;;;9.94;72.47;100035.56;5091895;28;20571;-65
2023/11/08 09:58:34;;;;;;;7.23;5.93;;;;;;;9.97;73.35;100035.56;5081440;28;20202;-62
2023/11/08 10:01:05;;;;;;;9.40;5.47;;;;;;;10.08;72.88;100031.16;5088071;28;20209;-63
2023/11/08 10:03:34;;;;;;;8.77;5.43;;;;;;;10.23;71.90;100029.28;5089031;28;20196;-65
2023/11/08 10:06:05;;;;;;;6.87;4.83;;;;;;;10.24;71.86;100019.00;5091356;28;20240;-63
2023/11/08 10:08:33;;;;;;;7.23;5.27;;;;;;;10.31;71.54;100014.63;5092790;28;20208;-63
2023/11/08 10:11:01;;;;;;;6.47;4.47;;;;;;;10.35;71.63;100016.34;5096042;28;20749;-66
2023/11/08 10:13:43;;;;;;;7.40;4.90;;;;;;;10.42;71.77;100027.41;5088158;28;20588;-65
2023/11/08 10:16:13;;;;;;;5.97;4.17;;;;;;;10.50;71.35;100026.47;5090040;28;20254;-65
2023/11/08 10:18:43;;;;;;;6.93;5.13;;;;;;;10.56;71.13;100022.94;5090818;28;20259;-66
2023/11/08 10:21:33;;;;;;;5.53;4.17;;;;;;;10.59;70.75;100015.19;5088789;28;20200;-66
2023/11/08 10:24:10;;;;;;;7.23;4.30;;;;;;;10.57;70.55;100015.22;5088598;28;20284;-64
2023/11/08 10:26:38;;;;;;;5.90;4.67;;;;;;;10.54;70.66;100004.94;5088589;28;20710;-67
2023/11/08 10:29:07;;;;;;;5.67;4.00;;;;;;;10.52;70.81;100011.81;5089948;28;20709;-67
2023/11/08 10:31:36;;;;;;;6.40;4.13;;;;;;;10.48;70.50;100006.72;5092043;28;20241;-62
2023/11/08 10:34:06;;;;;;;5.97;4.77;;;;;;;10.45;70.96;100001.63;5088058;28;20550;-61
2023/11/08 10:36:37;;;;;;;6.77;4.97;;;;;;;10.48;70.91;100010.16;5088782;28;20572;-62
2023/11/08 10:39:07;;;;;;;8.40;4.93;;;;;;;10.49;70.61;100000.69;5088816;28;20666;-64
2023/11/08 10:41:37;;;;;;;8.63;4.93;;;;;;;10.52;71.42;99998.94;5094562;28;20201;-64
2023/11/08 10:44:10;;;;;;;6.83;5.47;;;;;;;10.54;70.65;99986.91;5090358;28;20207;-66
2023/11/08 10:46:40;;;;;;;4.93;4.27;;;;;;;10.58;70.91;99988.56;5094586;28;20197;-64
2023/11/08 10:49:10;;;;;;;5.70;4.13;;;;;;;10.57;70.18;99986.88;5091524;28;20295;-65
2023/11/08 10:51:42;;;;;;;5.37;4.57;;;;;;;10.52;70.72;99983.50;5090420;28;20216;-67
2023/11/08 10:54:10;;;;;;;6.63;5.10;;;;;;;10.49;70.95;99983.53;5086287;28;20205;-67
2023/11/08 10:56:40;;;;;;;5.93;5.10;;;;;;;10.50;71.09;99986.97;5089033;28;20640;-69
2023/11/08 10:59:12;;;;;;;5.87;4.93;;;;;;;10.51;71.49;99986.09;5086761;28;20200;-72
2023/11/08 11:01:43;;;;;;;6.03;4.93;;;;;;;10.55;70.79;99990.34;5083378;28;20257;-69
2023/11/08 11:04:13;;;;;;;7.13;5.33;;;;;;;10.54;70.87;99988.63;5090299;28;20208;-63
2023/11/08 11:06:44;;;;;;;7.17;5.60;;;;;;;10.52;71.13;99993.78;5097344;28;20250;-64
2023/11/08 11:09:12;;;;;;;7.17;5.80;;;;;;;10.43;71.25;99987.91;5096594;28;20207;-66
2023/11/08 11:11:44;;;;;;;6.37;5.43;;;;;;;10.36;71.21;99987.13;5092871;28;20200;-65
2023/11/08 11:14:26;;;;;;;8.53;5.10;;;;;;;10.51;72.87;99986.09;5097985;28;20309;-64
2023/11/08 11:16:58;;;;;;;6.60;5.43;;;;;;;10.67;71.50;100002.22;5096126;28;20224;-69
2023/11/08 11:19:29;;;;;;;7.10;5.33;;;;;;;10.72;70.72;99990.13;5088386;28;20224;-64
2023/11/08 11:22:16;;;;;;;7.77;5.43;;;;;;;10.73;69.73;99991.84;5086833;28;20204;-67
2023/11/08 11:24:46;;;;;;;6.40;4.80;;;;;;;10.67;69.71;99989.31;5088325;28;20566;-66
2023/11/08 11:27:46;;;;;;;7.27;6.10;;;;;;;10.60;69.92;99985.97;5090987;28;20207;-66
2023/11/08 11:30:28;;;;;;;5.80;5.27;;;;;;;10.60;70.35;99997.16;5088372;28;20216;-66
2023/11/08 11:32:59;;;;;;;6.63;5.13;;;;;;;10.58;70.80;99998.03;5089244;28;20200;-63
2023/11/08 11:35:56;;;;;;;5.10;4.53;;;;;;;10.69;70.12;99992.75;5090608;28;20563;-67
2023/11/08 11:38:26;;;;;;;7.07;4.60;;;;;;;10.73;70.28;99986.69;5091268;28;20234;-65
2023/11/08 11:41:24;;;;;;;5.77;5.17;;;;;;;10.85;71.10;99991.66;5091176;28;20200;-68